Cairo, New York
Current Conditions -  °F | °C
As of 12:58 PM on Friday 24 Oct 2014 (Local Time) from KALB Reporting Station
Overcast Overcast  
Wind Chill: 47°   Ceiling: 1100
Heat Index: 49°   Visibility: 9mi
Dew Point: 46°   Wind: 5mph
Humidity: 90%   Direction: 30°NNE
Pressure: 29.83"   Gusts: NA
Location:  42.31°N, 74.01°W
Report Text: KALB 241658Z 03004KT 9SM SCT006 BKN011 OVC022 09/08 A2983 RMK AO2 DZE56 P0000 T00940078 $
Loading
Personal Weather Stations






























Interactive Weather Map
Tropical Storm Tracking
New forecast layout! Learn more

10-Day Weather Forecast

Advertisements
Track Severe Weather on mobile